Time;durP1;ratioP1;P1;durP2;ratioP2;P2;SDS_P1;SDS_P2;PMS_P1;PMS_P2;Temp;Humidity;BMP_temperature;BMP_pressure;BME280_temperature;BME280_humidity;BME280_pressure;Samples;Min_cycle;Max_cycle;Signal;HPM_P1;HPM_P2
2021/09/04 00:01:50;;;;;;;5.78;5.22;;;12.90;99.90;;;;;;1889256;76;21142;-75
2021/09/04 00:04:16;;;;;;;7.20;5.08;;;12.90;99.90;;;;;;1889240;75;21052;-75
2021/09/04 00:06:43;;;;;;;6.33;5.03;;;12.80;99.90;;;;;;1889220;76;21041;-75
2021/09/04 00:09:09;;;;;;;6.00;4.62;;;12.80;99.90;;;;;;1889144;76;21171;-76
2021/09/04 00:11:35;;;;;;;5.55;5.05;;;12.80;99.90;;;;;;1906125;75;21088;-75
2021/09/04 00:14:01;;;;;;;5.30;4.78;;;12.80;99.90;;;;;;1896728;75;21124;-75
2021/09/04 00:16:27;;;;;;;10.13;5.58;;;12.70;99.90;;;;;;1889170;75;21044;-76
2021/09/04 00:18:53;;;;;;;6.33;5.60;;;12.70;99.90;;;;;;1889349;76;21081;-76
2021/09/04 00:21:19;;;;;;;5.33;4.83;;;12.60;99.90;;;;;;1889178;75;21488;-76
2021/09/04 00:23:45;;;;;;;6.65;5.25;;;12.60;99.90;;;;;;1893312;75;21437;-76
2021/09/04 00:26:12;;;;;;;8.70;5.47;;;12.60;99.90;;;;;;1890555;75;21559;-76
2021/09/04 00:28:38;;;;;;;6.85;5.53;;;12.60;99.90;;;;;;1892717;75;21510;-76
2021/09/04 00:31:04;;;;;;;7.08;5.97;;;12.60;99.90;;;;;;1889300;75;21524;-76
2021/09/04 00:33:30;;;;;;;8.90;5.47;;;12.60;99.90;;;;;;1889449;75;21146;-76
2021/09/04 00:35:56;;;;;;;8.13;5.55;;;12.60;99.90;;;;;;1889025;76;21079;-76
2021/09/04 00:38:22;;;;;;;9.23;5.95;;;12.50;99.90;;;;;;1889231;76;21200;-76
2021/09/04 00:40:48;;;;;;;9.55;5.70;;;12.50;99.90;;;;;;1889252;76;21076;-76
2021/09/04 00:43:14;;;;;;;6.53;5.10;;;12.40;99.90;;;;;;1889259;76;21153;-76
2021/09/04 00:45:40;;;;;;;6.25;5.25;;;12.40;99.90;;;;;;1889013;75;21147;-76
2021/09/04 00:48:07;;;;;;;8.50;5.22;;;12.40;99.90;;;;;;1889059;76;21106;-76
2021/09/04 00:50:33;;;;;;;5.83;5.22;;;12.40;99.90;;;;;;1889203;75;21105;-76
2021/09/04 00:52:59;;;;;;;6.72;5.55;;;12.40;99.90;;;;;;1889128;76;21076;-76
2021/09/04 00:55:25;;;;;;;7.03;5.37;;;12.30;99.90;;;;;;1889226;75;21097;-77
2021/09/04 00:57:51;;;;;;;11.18;5.47;;;12.30;99.90;;;;;;1889186;75;21126;-76
2021/09/04 01:00:17;;;;;;;6.58;5.25;;;12.30;99.90;;;;;;1889273;75;21080;-76
2021/09/04 01:02:43;;;;;;;13.25;5.60;;;12.30;99.90;;;;;;1889290;75;21101;-76
2021/09/04 01:05:10;;;;;;;8.45;5.72;;;12.20;99.90;;;;;;1889256;76;21166;-76
2021/09/04 01:07:36;;;;;;;9.50;6.22;;;12.20;99.90;;;;;;1889132;75;21091;-76
2021/09/04 01:10:02;;;;;;;6.55;5.50;;;12.20;99.90;;;;;;1889225;76;21186;-76
2021/09/04 01:12:28;;;;;;;8.65;5.90;;;12.20;99.90;;;;;;1889140;76;21045;-76
2021/09/04 01:14:54;;;;;;;5.78;5.08;;;12.10;99.90;;;;;;1889123;76;21075;-76
2021/09/04 01:17:20;;;;;;;5.83;5.22;;;12.10;99.90;;;;;;1889124;76;21095;-76
2021/09/04 01:19:46;;;;;;;7.30;5.35;;;12.00;99.90;;;;;;1889237;76;21175;-76
2021/09/04 01:22:12;;;;;;;5.45;4.95;;;12.00;99.90;;;;;;1889138;76;21056;-76
2021/09/04 01:24:38;;;;;;;6.35;5.20;;;12.00;99.90;;;;;;1889236;76;21500;-76
2021/09/04 01:27:05;;;;;;;6.62;5.45;;;12.00;99.90;;;;;;1889097;76;21508;-76
2021/09/04 01:29:31;;;;;;;7.50;5.10;;;12.00;99.90;;;;;;1889155;76;21512;-76
2021/09/04 01:31:57;;;;;;;8.35;5.47;;;12.00;99.90;;;;;;1889100;76;21406;-76
2021/09/04 01:34:23;;;;;;;8.23;5.25;;;11.90;99.90;;;;;;1889112;76;21526;-76
2021/09/04 01:36:49;;;;;;;6.90;5.30;;;12.00;99.90;;;;;;1889064;76;21500;-74
2021/09/04 01:39:15;;;;;;;6.47;4.97;;;12.00;99.90;;;;;;1889149;75;21079;-75
2021/09/04 01:41:41;;;;;;;6.55;5.10;;;11.90;99.90;;;;;;1889116;76;21178;-75
2021/09/04 01:44:07;;;;;;;5.58;4.80;;;11.90;99.90;;;;;;1889130;76;21072;-75
2021/09/04 01:46:36;;;;;;;7.40;5.45;;;11.90;99.90;;;;;;1889137;76;21071;-75
2021/09/04 01:49:02;;;;;;;9.23;5.53;;;11.90;99.90;;;;;;1889053;76;21041;-76
2021/09/04 01:51:28;;;;;;;8.80;6.25;;;11.90;99.90;;;;;;1889109;76;21079;-76
2021/09/04 01:53:55;;;;;;;5.67;5.08;;;11.90;99.90;;;;;;1889331;76;21108;-76
2021/09/04 01:56:21;;;;;;;8.13;5.72;;;11.90;99.90;;;;;;1889151;75;21149;-75
2021/09/04 01:58:47;;;;;;;6.08;5.45;;;11.80;99.90;;;;;;1889111;76;21028;-75
2021/09/04 02:01:13;;;;;;;8.30;5.55;;;11.80;99.90;;;;;;1889132;76;21089;-75
2021/09/04 02:03:39;;;;;;;6.28;5.70;;;11.80;99.90;;;;;;1889234;76;21059;-75
2021/09/04 02:06:05;;;;;;;6.75;5.55;;;11.80;99.90;;;;;;1889155;75;21577;-75
2021/09/04 02:08:31;;;;;;;6.97;5.37;;;11.80;99.90;;;;;;1889207;76;21515;-75
2021/09/04 02:10:57;;;;;;;5.75;5.03;;;11.70;99.90;;;;;;1889142;76;21511;-75
2021/09/04 02:13:24;;;;;;;6.25;5.45;;;11.70;99.90;;;;;;1889123;75;21507;-75
2021/09/04 02:15:50;;;;;;;9.43;6.00;;;11.70;99.90;;;;;;1889081;76;21507;-75
2021/09/04 02:18:16;;;;;;;11.93;5.65;;;11.70;99.90;;;;;;1889075;76;21449;-75
2021/09/04 02:20:42;;;;;;;10.82;6.42;;;11.60;99.90;;;;;;1889145;76;21076;-75
2021/09/04 02:23:09;;;;;;;10.88;5.60;;;11.60;99.90;;;;;;1889111;76;21072;-74
2021/09/04 02:25:36;;;;;;;8.18;6.10;;;11.60;99.90;;;;;;1889206;76;21084;-75
2021/09/04 02:28:02;;;;;;;6.75;6.05;;;11.60;99.90;;;;;;1889076;75;21543;-75
2021/09/04 02:30:28;;;;;;;8.55;5.65;;;11.60;99.90;;;;;;1889120;76;21077;-74
2021/09/04 02:32:54;;;;;;;8.10;5.58;;;11.50;99.90;;;;;;1889199;76;21079;-75
2021/09/04 02:35:20;;;;;;;9.03;6.08;;;11.50;99.90;;;;;;1889197;76;21076;-75
2021/09/04 02:37:47;;;;;;;9.88;6.05;;;11.50;99.90;;;;;;1889198;76;21048;-74
2021/09/04 02:40:13;;;;;;;8.03;5.12;;;11.50;99.90;;;;;;1889134;76;21154;-75
2021/09/04 02:42:39;;;;;;;6.97;5.72;;;11.50;99.90;;;;;;1889043;76;21553;-75
2021/09/04 02:45:05;;;;;;;8.50;5.47;;;11.40;99.90;;;;;;1890902;75;21508;-75
2021/09/04 02:47:31;;;;;;;8.73;6.28;;;11.40;99.90;;;;;;1889270;75;21735;-75
2021/09/04 02:49:57;;;;;;;6.25;5.65;;;11.40;99.90;;;;;;1892378;75;21484;-75
2021/09/04 02:52:23;;;;;;;7.25;5.90;;;11.40;99.90;;;;;;1894585;75;21589;-75
2021/09/04 02:54:49;;;;;;;7.78;6.08;;;11.30;99.90;;;;;;1889191;76;21484;-75
2021/09/04 02:57:15;;;;;;;6.15;5.55;;;11.30;99.90;;;;;;1888973;76;21044;-75
2021/09/04 02:59:42;;;;;;;10.82;6.03;;;11.30;99.90;;;;;;1889217;76;21111;-76
2021/09/04 03:02:08;;;;;;;7.08;5.28;;;11.30;99.90;;;;;;1888978;76;21189;-75
2021/09/04 03:04:34;;;;;;;7.35;6.60;;;11.30;99.90;;;;;;1889275;76;21139;-76
2021/09/04 03:07:02;;;;;;;11.70;6.80;;;11.30;99.90;;;;;;1889164;76;21127;-75
2021/09/04 03:09:28;;;;;;;10.90;6.37;;;11.30;99.90;;;;;;1889113;76;21036;-75
2021/09/04 03:11:54;;;;;;;9.93;6.70;;;11.30;99.90;;;;;;1889054;76;21133;-75
2021/09/04 03:14:20;;;;;;;9.65;6.50;;;11.20;99.90;;;;;;1889102;76;21151;-75
2021/09/04 03:16:46;;;;;;;9.30;6.60;;;11.30;99.90;;;;;;1889044;76;21084;-75
2021/09/04 03:19:12;;;;;;;8.53;6.47;;;11.20;99.90;;;;;;1889083;76;21173;-75
2021/09/04 03:21:38;;;;;;;10.50;6.67;;;11.20;99.90;;;;;;1889055;76;21153;-75
2021/09/04 03:24:05;;;;;;;8.05;6.58;;;11.10;99.90;;;;;;1889086;76;21134;-75
2021/09/04 03:26:31;;;;;;;9.93;6.12;;;11.10;99.90;;;;;;1889063;76;21079;-76
2021/09/04 03:28:57;;;;;;;19.82;6.47;;;11.10;99.90;;;;;;1889055;76;21041;-75
2021/09/04 03:31:23;;;;;;;11.20;6.80;;;11.10;99.90;;;;;;1889178;76;21536;-76
2021/09/04 03:33:49;;;;;;;11.60;6.60;;;11.10;99.90;;;;;;1888956;76;21504;-76
2021/09/04 03:36:15;;;;;;;7.17;6.20;;;11.10;99.90;;;;;;1889140;76;21534;-76
2021/09/04 03:38:41;;;;;;;10.63;6.95;;;11.10;99.90;;;;;;1888956;75;21488;-76
2021/09/04 03:41:07;;;;;;;6.87;5.67;;;11.10;99.90;;;;;;1888963;76;21469;-75
2021/09/04 03:43:35;;;;;;;7.20;5.80;;;11.10;99.90;;;;;;1889130;76;21554;-75
2021/09/04 03:46:02;;;;;;;6.50;5.87;;;11.00;99.90;;;;;;1888977;76;21201;-75
2021/09/04 03:48:28;;;;;;;10.80;6.90;;;11.00;99.90;;;;;;1889264;75;21105;-76
2021/09/04 03:50:54;;;;;;;18.98;5.85;;;11.00;99.90;;;;;;1889048;76;21051;-75
2021/09/04 03:53:20;;;;;;;8.03;6.47;;;10.90;99.90;;;;;;1888977;76;21572;-76
2021/09/04 03:55:46;;;;;;;7.25;5.95;;;10.90;99.90;;;;;;1889027;75;21429;-76
2021/09/04 03:58:12;;;;;;;9.28;6.58;;;10.80;99.90;;;;;;1889023;76;21617;-76
2021/09/04 04:00:38;;;;;;;12.88;6.72;;;10.80;99.90;;;;;;1889201;75;21499;-75
2021/09/04 04:03:04;;;;;;;7.17;6.00;;;10.70;99.90;;;;;;1889067;76;21553;-74
2021/09/04 04:05:30;;;;;;;15.08;6.55;;;10.80;99.90;;;;;;1889016;76;21446;-76
2021/09/04 04:07:57;;;;;;;7.87;6.55;;;10.80;99.90;;;;;;1889058;76;21072;-75
2021/09/04 04:10:23;;;;;;;9.13;6.87;;;10.80;99.90;;;;;;1889056;76;21238;-75
2021/09/04 04:12:49;;;;;;;7.85;6.78;;;10.80;99.90;;;;;;1889062;75;21075;-76
2021/09/04 04:15:15;;;;;;;7.20;5.85;;;10.80;99.90;;;;;;1889069;76;21106;-75
2021/09/04 04:17:41;;;;;;;7.12;6.42;;;10.80;99.90;;;;;;1889008;76;21079;-75
2021/09/04 04:20:07;;;;;;;10.10;6.37;;;10.70;99.90;;;;;;1889123;76;21080;-76
2021/09/04 04:22:33;;;;;;;8.85;6.60;;;10.70;99.90;;;;;;1889183;75;21131;-75
2021/09/04 04:24:59;;;;;;;11.20;7.40;;;10.60;99.90;;;;;;1889277;76;21071;-76
2021/09/04 04:27:26;;;;;;;9.93;6.12;;;10.60;99.90;;;;;;1889054;76;21138;-75
2021/09/04 04:29:52;;;;;;;8.83;5.53;;;10.70;99.90;;;;;;1889163;76;21142;-75
2021/09/04 04:32:18;;;;;;;7.08;6.30;;;10.70;99.90;;;;;;1889039;76;21105;-76
2021/09/04 04:34:44;;;;;;;10.40;6.42;;;10.70;99.90;;;;;;1889166;76;21076;-76
2021/09/04 04:37:10;;;;;;;7.83;6.20;;;10.60;99.90;;;;;;1889133;76;21083;-76
2021/09/04 04:39:36;;;;;;;9.08;6.55;;;10.60;99.90;;;;;;1889033;76;21134;-76
2021/09/04 04:42:02;;;;;;;8.33;6.30;;;10.60;99.90;;;;;;1889172;76;21064;-76
2021/09/04 04:44:28;;;;;;;8.40;6.87;;;10.50;99.90;;;;;;1889040;76;21075;-76
2021/09/04 04:46:55;;;;;;;8.35;6.45;;;10.60;99.90;;;;;;1889244;76;21192;-76
2021/09/04 04:49:21;;;;;;;8.73;6.22;;;10.60;99.90;;;;;;1889055;76;21087;-76
2021/09/04 04:51:47;;;;;;;10.50;6.22;;;10.60;99.90;;;;;;1889368;76;21089;-76
2021/09/04 04:54:13;;;;;;;7.40;6.28;;;10.70;99.90;;;;;;1889078;76;21161;-76
2021/09/04 04:56:39;;;;;;;7.62;6.53;;;10.70;99.90;;;;;;1889224;76;21060;-76
2021/09/04 04:59:05;;;;;;;7.03;6.33;;;10.60;99.90;;;;;;1889114;76;21507;-76
2021/09/04 05:01:31;;;;;;;8.25;6.92;;;10.70;99.90;;;;;;1889038;76;21460;-76
2021/09/04 05:03:57;;;;;;;7.33;6.05;;;10.70;99.90;;;;;;1889235;76;21548;-76
2021/09/04 05:06:24;;;;;;;12.00;6.97;;;10.70;99.90;;;;;;1889000;76;21503;-76
2021/09/04 05:08:50;;;;;;;11.40;7.03;;;10.70;99.90;;;;;;1889232;76;21473;-76
2021/09/04 05:11:16;;;;;;;7.75;6.03;;;10.70;99.90;;;;;;1889076;76;21507;-76
2021/09/04 05:13:42;;;;;;;11.28;6.60;;;10.70;99.90;;;;;;1889395;76;21068;-76
2021/09/04 05:16:08;;;;;;;12.35;6.05;;;10.70;99.90;;;;;;1889104;76;21036;-76
2021/09/04 05:18:34;;;;;;;8.73;6.33;;;10.70;99.90;;;;;;1894755;75;21049;-76
2021/09/04 05:21:00;;;;;;;7.92;6.42;;;10.70;99.90;;;;;;1894615;75;21153;-76
2021/09/04 05:23:26;;;;;;;15.63;6.72;;;10.70;99.90;;;;;;1889768;75;21137;-77
2021/09/04 05:25:53;;;;;;;7.40;6.53;;;10.70;99.90;;;;;;1892602;75;21135;-76
2021/09/04 05:28:19;;;;;;;7.72;6.20;;;10.80;99.90;;;;;;1889200;75;21068;-76
2021/09/04 05:30:45;;;;;;;10.32;7.20;;;10.80;99.90;;;;;;1913986;75;21150;-76
2021/09/04 05:33:11;;;;;;;6.83;6.12;;;10.80;99.90;;;;;;1889099;76;21084;-76
2021/09/04 05:35:37;;;;;;;7.97;6.25;;;10.80;99.90;;;;;;1889239;75;21079;-76
2021/09/04 05:38:03;;;;;;;6.62;5.78;;;10.90;99.90;;;;;;1907762;74;21095;-76
2021/09/04 05:40:29;;;;;;;6.62;6.03;;;11.00;99.90;;;;;;1895235;75;21080;-76
2021/09/04 05:42:55;;;;;;;7.20;5.70;;;11.00;99.90;;;;;;1895491;75;21076;-76
2021/09/04 05:45:21;;;;;;;8.35;5.85;;;11.10;99.90;;;;;;1893514;75;21083;-76
2021/09/04 05:47:48;;;;;;;5.65;5.15;;;11.20;99.90;;;;;;1892210;75;21142;-76
2021/09/04 05:50:14;;;;;;;7.22;6.35;;;11.20;99.90;;;;;;1895154;75;21092;-76
2021/09/04 05:52:40;;;;;;;6.17;5.40;;;11.20;99.90;;;;;;1897952;74;21503;-77
2021/09/04 05:55:06;;;;;;;7.97;5.97;;;11.30;99.90;;;;;;1897368;75;21572;-76
2021/09/04 05:57:32;;;;;;;6.65;5.95;;;11.30;99.90;;;;;;1897539;74;21095;-76
2021/09/04 05:59:58;;;;;;;6.37;5.47;;;11.30;99.90;;;;;;1894102;74;21087;-75
2021/09/04 06:02:24;;;;;;;6.10;5.50;;;11.30;99.90;;;;;;1894204;74;21157;-75
2021/09/04 06:04:51;;;;;;;6.70;6.05;;;11.40;99.90;;;;;;1894323;75;21161;-76
2021/09/04 06:07:17;;;;;;;6.33;5.72;;;11.40;99.90;;;;;;1893640;75;21052;-76
2021/09/04 06:09:43;;;;;;;9.73;5.75;;;11.50;99.90;;;;;;1895875;75;21213;-76
2021/09/04 06:12:09;;;;;;;6.95;6.12;;;11.50;99.90;;;;;;1890625;75;21084;-76
2021/09/04 06:14:35;;;;;;;11.68;7.22;;;11.60;99.90;;;;;;1897046;75;21091;-76
2021/09/04 06:17:01;;;;;;;10.03;7.33;;;11.70;99.90;;;;;;1892909;75;21056;-76
2021/09/04 06:19:27;;;;;;;8.88;7.22;;;11.70;99.90;;;;;;1890549;75;21072;-77
2021/09/04 06:21:55;;;;;;;10.98;7.70;;;11.70;99.90;;;;;;1889053;75;21153;-77
2021/09/04 06:24:21;;;;;;;8.50;7.33;;;11.90;99.90;;;;;;1895428;75;21164;-77
2021/09/04 06:26:47;;;;;;;8.80;7.90;;;12.00;99.90;;;;;;1896283;75;21096;-76
2021/09/04 06:29:13;;;;;;;8.40;7.50;;;12.10;99.90;;;;;;1889099;76;21198;-76
2021/09/04 06:31:39;;;;;;;10.23;8.53;;;12.20;99.90;;;;;;1889829;75;21088;-76
2021/09/04 06:34:05;;;;;;;9.83;7.40;;;12.20;99.90;;;;;;1898587;75;21160;-76
2021/09/04 06:36:31;;;;;;;7.40;6.65;;;12.40;99.90;;;;;;1896600;75;21056;-75
2021/09/04 06:38:58;;;;;;;7.92;6.75;;;12.50;99.90;;;;;;1890223;75;21162;-75
2021/09/04 06:41:24;;;;;;;9.18;7.55;;;12.70;99.90;;;;;;1889664;75;21500;-76
2021/09/04 06:43:50;;;;;;;9.38;7.47;;;12.70;99.90;;;;;;1893688;75;21531;-77
2021/09/04 06:46:16;;;;;;;9.55;7.90;;;12.70;99.90;;;;;;1893072;75;21473;-77
2021/09/04 06:48:42;;;;;;;10.72;7.35;;;12.80;99.90;;;;;;1890813;74;21553;-76
2021/09/04 06:51:08;;;;;;;9.23;7.42;;;12.90;99.90;;;;;;1892491;75;21488;-77
2021/09/04 06:53:34;;;;;;;10.78;7.00;;;13.00;99.90;;;;;;1892661;75;21492;-76
2021/09/04 06:56:00;;;;;;;6.97;6.37;;;13.10;99.90;;;;;;1889339;75;21159;-77
2021/09/04 06:58:27;;;;;;;11.50;7.12;;;13.20;99.90;;;;;;1891962;74;21079;-77
2021/09/04 07:00:57;;;;;;;10.23;7.35;;;13.20;99.90;;;;;;1888957;75;21134;-76
2021/09/04 07:03:20;;;;;;;7.87;6.75;;;13.30;99.90;;;;;;1889133;75;21116;-76
2021/09/04 07:05:47;;;;;;;13.13;6.60;;;13.50;99.90;;;;;;1894764;75;21519;-76
2021/09/04 07:08:13;;;;;;;7.12;6.05;;;13.60;99.90;;;;;;1896502;75;21492;-77
2021/09/04 07:10:39;;;;;;;7.30;6.40;;;13.70;99.90;;;;;;1895406;75;21592;-76
2021/09/04 07:13:05;;;;;;;13.98;7.08;;;13.80;99.90;;;;;;1892955;75;21441;-77
2021/09/04 07:15:31;;;;;;;8.20;6.42;;;14.00;99.90;;;;;;1889078;75;21515;-77
2021/09/04 07:17:57;;;;;;;10.80;7.12;;;14.00;99.90;;;;;;1889142;76;21523;-77
2021/09/04 07:20:23;;;;;;;6.80;5.70;;;14.10;99.90;;;;;;1889149;76;21546;-77
2021/09/04 07:22:49;;;;;;;8.73;6.40;;;14.20;99.90;;;;;;1890593;75;21082;-77
2021/09/04 07:25:16;;;;;;;8.65;6.53;;;14.40;99.90;;;;;;1893562;75;21157;-77
2021/09/04 07:27:43;;;;;;;9.88;6.95;;;14.50;99.90;;;;;;1889770;75;21201;-76
2021/09/04 07:30:09;;;;;;;9.78;7.47;;;14.60;99.90;;;;;;1898377;75;21083;-77
2021/09/04 07:32:35;;;;;;;7.75;6.55;;;14.70;99.90;;;;;;1898483;75;21046;-76
2021/09/04 07:35:01;;;;;;;12.25;6.75;;;15.00;99.90;;;;;;1893867;75;21049;-76
2021/09/04 07:37:27;;;;;;;8.40;6.35;;;15.10;99.90;;;;;;1896102;75;21087;-76
2021/09/04 07:39:53;;;;;;;10.70;6.25;;;15.40;99.90;;;;;;1894143;75;21115;-76
2021/09/04 07:42:19;;;;;;;7.47;6.40;;;15.40;99.90;;;;;;1897534;75;21087;-76
2021/09/04 07:44:45;;;;;;;11.43;6.05;;;15.50;99.90;;;;;;1891850;75;21145;-77
2021/09/04 07:47:12;;;;;;;9.63;6.75;;;15.60;99.90;;;;;;1896285;74;21087;-76
2021/09/04 07:49:38;;;;;;;8.80;6.10;;;15.70;99.90;;;;;;1889231;76;21166;-75
2021/09/04 07:52:04;;;;;;;9.20;6.00;;;15.80;99.90;;;;;;1894348;75;21157;-75
2021/09/04 07:54:30;;;;;;;6.53;5.90;;;15.90;99.90;;;;;;1897134;75;21087;-74
2021/09/04 07:56:56;;;;;;;10.32;6.45;;;16.20;99.90;;;;;;1889778;75;21080;-74
2021/09/04 07:59:22;;;;;;;10.30;6.12;;;16.40;99.90;;;;;;1891525;75;21153;-74
2021/09/04 08:01:48;;;;;;;8.25;5.97;;;16.60;99.90;;;;;;1895577;75;21052;-74
2021/09/04 08:04:16;;;;;;;6.65;5.87;;;16.80;99.90;;;;;;1895728;74;21088;-74
2021/09/04 08:06:42;;;;;;;10.65;5.60;;;17.40;99.90;;;;;;1896650;75;21094;-74
2021/09/04 08:09:08;;;;;;;8.55;6.45;;;17.70;99.90;;;;;;1891558;74;21087;-75
2021/09/04 08:11:34;;;;;;;7.15;5.62;;;18.00;99.90;;;;;;1891028;75;21040;-74
2021/09/04 08:14:00;;;;;;;7.83;5.70;;;18.50;99.90;;;;;;1894641;75;21173;-75
2021/09/04 08:16:26;;;;;;;8.35;5.55;;;18.80;99.90;;;;;;1892656;75;21139;-72
2021/09/04 08:18:53;;;;;;;8.38;5.67;;;19.20;99.90;;;;;;1898863;74;21146;-74
2021/09/04 08:21:19;;;;;;;9.10;5.53;;;19.60;99.90;;;;;;1893593;75;21048;-73
2021/09/04 08:23:45;;;;;;;7.90;5.62;;;19.50;99.90;;;;;;1895553;74;21235;-73
2021/09/04 08:26:11;;;;;;;6.10;5.47;;;19.40;99.90;;;;;;1898518;75;21095;-74
2021/09/04 08:28:37;;;;;;;9.98;5.83;;;19.40;99.90;;;;;;1890798;75;21193;-73
2021/09/04 08:31:03;;;;;;;6.87;5.12;;;19.50;99.90;;;;;;1898894;75;21091;-73
2021/09/04 08:33:29;;;;;;;6.53;5.37;;;20.10;99.90;;;;;;1895809;75;21080;-72
2021/09/04 08:35:55;;;;;;;6.80;5.40;;;20.60;99.90;;;;;;1898500;75;21095;-74
2021/09/04 08:38:22;;;;;;;9.58;5.00;;;21.10;99.90;;;;;;1896147;74;21079;-74
2021/09/04 08:40:49;;;;;;;7.67;5.80;;;20.90;99.90;;;;;;1889549;76;21045;-74
2021/09/04 08:43:15;;;;;;;6.47;4.92;;;20.80;99.90;;;;;;1889580;75;21087;-73
2021/09/04 08:45:42;;;;;;;5.85;4.47;;;20.20;99.90;;;;;;1896486;75;21091;-74
2021/09/04 08:48:09;;;;;;;7.62;4.97;;;20.60;99.90;;;;;;1894768;75;21142;-73
2021/09/04 08:50:36;;;;;;;13.13;5.10;;;20.30;99.90;;;;;;1892985;75;21615;-74
2021/09/04 08:53:02;;;;;;;8.48;4.72;;;20.70;99.90;;;;;;1889642;76;21057;-72
2021/09/04 08:55:28;;;;;;;5.03;4.60;;;20.30;99.90;;;;;;1896395;75;21169;-73
2021/09/04 08:57:54;;;;;;;5.85;4.20;;;20.70;99.90;;;;;;1897211;74;21091;-73
2021/09/04 09:00:20;;;;;;;6.65;4.87;;;21.00;99.90;;;;;;1891521;75;21083;-75
2021/09/04 09:02:47;;;;;;;5.00;4.42;;;21.70;99.90;;;;;;1893288;75;21131;-73
2021/09/04 09:05:13;;;;;;;7.72;4.70;;;21.10;99.90;;;;;;1894835;75;21141;-73
2021/09/04 09:07:39;;;;;;;6.83;5.00;;;20.70;99.90;;;;;;1889863;76;21115;-74
2021/09/04 09:10:05;;;;;;;5.20;4.53;;;21.00;99.90;;;;;;1894576;75;21073;-74
2021/09/04 09:12:32;;;;;;;4.95;4.35;;;21.50;99.90;;;;;;1889535;75;21056;-75
2021/09/04 09:14:59;;;;;;;13.20;4.37;;;21.90;99.90;;;;;;1890327;75;21089;-74
2021/09/04 09:17:25;;;;;;;4.80;4.33;;;22.20;99.90;;;;;;1892901;75;21165;-75
2021/09/04 09:19:54;;;;;;;4.87;4.45;;;22.40;99.90;;;;;;1889298;75;21178;-74
2021/09/04 09:22:19;;;;;;;5.85;4.35;;;22.30;99.90;;;;;;1892530;75;21100;-75
2021/09/04 09:24:45;;;;;;;10.45;4.45;;;22.40;99.90;;;;;;1889141;75;21169;-75
2021/09/04 09:27:11;;;;;;;6.60;4.00;;;23.00;99.90;;;;;;1894178;75;21095;-76
2021/09/04 09:29:37;;;;;;;5.92;4.33;;;23.60;99.90;;;;;;1898493;75;21091;-75
2021/09/04 09:32:04;;;;;;;5.03;3.98;;;24.20;99.90;;;;;;1898566;74;21228;-75
2021/09/04 09:34:30;;;;;;;4.53;3.95;;;24.60;99.90;;;;;;1891600;75;21158;-75
2021/09/04 09:36:56;;;;;;;4.50;4.10;;;25.40;99.90;;;;;;1895181;74;21177;-75
2021/09/04 09:39:22;;;;;;;5.60;3.77;;;25.70;99.90;;;;;;1889104;76;21041;-74
2021/09/04 09:41:48;;;;;;;5.47;3.87;;;25.30;99.90;;;;;;1892479;75;21084;-75
2021/09/04 09:44:14;;;;;;;5.03;3.90;;;24.50;99.90;;;;;;1890957;75;21143;-75
2021/09/04 09:46:40;;;;;;;4.72;3.90;;;23.80;99.90;;;;;;1889040;75;21092;-75
2021/09/04 09:49:06;;;;;;;5.25;4.28;;;24.10;99.90;;;;;;1895041;75;21056;-75
2021/09/04 09:51:33;;;;;;;5.20;3.67;;;24.80;99.90;;;;;;1891566;75;21165;-75
2021/09/04 09:53:59;;;;;;;8.48;3.80;;;24.70;99.90;;;;;;1896945;75;21103;-75
2021/09/04 09:56:25;;;;;;;4.00;3.60;;;24.50;99.90;;;;;;1893322;74;21080;-75
2021/09/04 09:58:51;;;;;;;5.65;3.85;;;24.60;99.90;;;;;;1894262;75;21417;-75
2021/09/04 10:01:17;;;;;;;5.15;3.50;;;24.70;99.90;;;;;;1897711;75;21495;-75
2021/09/04 10:03:43;;;;;;;4.55;3.80;;;24.00;99.90;;;;;;1893561;75;21515;-75
2021/09/04 10:06:09;;;;;;;5.15;3.62;;;24.40;99.90;;;;;;1891316;75;21535;-75
2021/09/04 10:08:35;;;;;;;5.05;3.22;;;24.80;99.90;;;;;;1891606;75;21564;-75
2021/09/04 10:11:05;;;;;;;5.20;3.27;;;24.90;99.90;;;;;;1896657;75;21053;-75
2021/09/04 10:13:29;;;;;;;4.78;3.10;;;25.60;99.90;;;;;;1892361;75;21147;-75
2021/09/04 10:15:56;;;;;;;4.95;3.50;;;25.90;99.90;;;;;;1892768;75;21095;-75
2021/09/04 10:18:22;;;;;;;3.50;2.55;;;26.30;99.90;;;;;;1889126;76;21084;-75
2021/09/04 10:20:48;;;;;;;4.12;3.10;;;26.70;99.90;;;;;;1895017;75;21164;-75
2021/09/04 10:23:15;;;;;;;2.67;2.47;;;26.50;99.90;;;;;;1898602;74;21505;-75
2021/09/04 10:25:41;;;;;;;2.15;2.02;;;26.70;99.90;;;;;;1896782;74;21099;-76
2021/09/04 10:28:07;;;;;;;5.85;2.98;;;26.60;99.90;;;;;;1894453;75;21095;-75
2021/09/04 10:30:34;;;;;;;2.83;2.40;;;26.40;99.90;;;;;;1897768;75;21123;-76
2021/09/04 10:33:00;;;;;;;7.40;2.80;;;25.50;99.90;;;;;;1895206;75;21173;-75
2021/09/04 10:35:26;;;;;;;4.87;2.75;;;25.90;99.90;;;;;;1896301;75;21053;-76
2021/09/04 10:37:52;;;;;;;3.08;2.52;;;26.10;99.90;;;;;;1889280;75;21169;-75
2021/09/04 10:40:18;;;;;;;2.50;2.30;;;26.70;99.90;;;;;;1895528;75;21091;-75
2021/09/04 10:42:44;;;;;;;2.85;2.50;;;26.10;99.90;;;;;;1894421;75;21476;-76
2021/09/04 10:45:10;;;;;;;3.58;2.62;;;26.40;99.90;;;;;;1893130;75;21496;-75
2021/09/04 10:47:36;;;;;;;4.53;2.65;;;26.70;99.90;;;;;;1895140;75;21561;-75
2021/09/04 10:50:03;;;;;;;2.90;2.22;;;26.50;99.90;;;;;;1897630;75;21503;-75
2021/09/04 10:52:29;;;;;;;3.92;2.35;;;26.90;99.90;;;;;;1889215;76;21134;-75
2021/09/04 10:54:56;;;;;;;2.90;2.70;;;27.20;99.90;;;;;;1901005;73;21162;-75
2021/09/04 10:57:22;;;;;;;3.08;2.70;;;27.10;99.70;;;;;;1894901;75;21060;-74
2021/09/04 10:59:48;;;;;;;3.47;2.45;;;26.90;99.90;;;;;;1895158;75;21150;-74
2021/09/04 11:02:14;;;;;;;2.20;2.10;;;26.50;99.90;;;;;;1896853;75;21495;-74
2021/09/04 11:04:40;;;;;;;2.80;2.50;;;26.90;99.90;;;;;;1892036;75;21514;-73
2021/09/04 11:07:06;;;;;;;2.70;2.50;;;26.80;99.90;;;;;;1894516;75;21497;-74
2021/09/04 11:09:32;;;;;;;2.65;2.35;;;26.80;99.90;;;;;;1898370;75;21578;-74
2021/09/04 11:11:58;;;;;;;5.30;2.25;;;27.20;99.90;;;;;;1893958;75;21087;-73
2021/09/04 11:14:27;;;;;;;2.85;2.58;;;27.40;99.90;;;;;;1894825;74;21088;-73
2021/09/04 11:16:54;;;;;;;3.05;2.58;;;26.90;99.90;;;;;;1889454;75;21131;-74
2021/09/04 11:19:21;;;;;;;3.65;2.40;;;27.00;99.90;;;;;;1890182;75;21041;-73
2021/09/04 11:21:47;;;;;;;3.12;2.27;;;27.00;99.90;;;;;;1893791;74;21095;-73
2021/09/04 11:24:13;;;;;;;5.08;2.30;;;27.60;99.90;;;;;;1892667;75;21531;-74
2021/09/04 11:26:39;;;;;;;3.27;2.17;;;28.10;99.90;;;;;;1896279;75;21495;-73
2021/09/04 11:29:06;;;;;;;3.70;2.35;;;27.60;99.70;;;;;;1889394;75;21465;-74
2021/09/04 11:31:32;;;;;;;2.65;2.45;;;27.90;99.90;;;;;;1893446;75;21503;-74
2021/09/04 11:33:58;;;;;;;4.62;2.72;;;28.10;98.70;;;;;;1896014;75;21085;-73
2021/09/04 11:36:24;;;;;;;5.15;2.67;;;28.30;96.80;;;;;;1895221;75;21293;-72
2021/09/04 11:38:50;;;;;;;3.77;2.67;;;28.20;96.00;;;;;;1898615;75;21158;-74
2021/09/04 11:41:16;;;;;;;2.40;2.30;;;28.20;95.70;;;;;;1896540;75;21072;-74
2021/09/04 11:43:42;;;;;;;2.62;2.40;;;28.10;95.80;;;;;;1892693;75;21103;-74
2021/09/04 11:46:08;;;;;;;4.72;3.00;;;28.00;95.30;;;;;;1890174;75;21146;-75
2021/09/04 11:48:35;;;;;;;4.97;2.30;;;27.90;97.40;;;;;;1891240;75;21071;-75
2021/09/04 11:51:01;;;;;;;2.62;2.42;;;28.70;96.40;;;;;;1896654;75;21079;-75
2021/09/04 11:53:27;;;;;;;4.58;2.80;;;28.80;95.20;;;;;;1896554;75;21157;-75
2021/09/04 11:55:53;;;;;;;5.90;2.80;;;28.70;96.70;;;;;;1898166;75;21086;-75
2021/09/04 11:58:19;;;;;;;3.05;2.70;;;29.40;93.00;;;;;;1888974;75;21113;-75
2021/09/04 12:00:45;;;;;;;2.65;2.10;;;29.10;93.70;;;;;;1888930;75;21194;-75
2021/09/04 12:03:11;;;;;;;3.17;2.33;;;28.80;93.60;;;;;;1888973;75;21080;-75
2021/09/04 12:05:37;;;;;;;3.00;2.55;;;28.60;93.60;;;;;;1893780;75;21092;-75
2021/09/04 12:08:04;;;;;;;2.70;2.27;;;29.40;92.40;;;;;;1888972;75;21115;-75
2021/09/04 12:10:30;;;;;;;3.00;2.65;;;29.60;91.00;;;;;;1888931;76;21079;-75
2021/09/04 12:12:56;;;;;;;4.08;2.20;;;29.80;91.50;;;;;;1890560;75;21172;-75
2021/09/04 12:15:22;;;;;;;4.83;2.02;;;30.00;90.50;;;;;;1892398;75;21089;-75
2021/09/04 12:17:48;;;;;;;3.02;2.17;;;30.10;90.20;;;;;;1896503;74;21152;-75
2021/09/04 12:20:14;;;;;;;2.85;2.60;;;30.10;90.50;;;;;;1891835;75;21202;-75
2021/09/04 12:22:40;;;;;;;2.00;1.90;;;29.50;89.70;;;;;;1890555;74;21107;-75
2021/09/04 12:25:06;;;;;;;2.37;2.20;;;29.60;89.80;;;;;;1888823;75;21170;-75
2021/09/04 12:27:33;;;;;;;2.40;2.20;;;29.80;87.70;;;;;;1892966;74;21154;-75
2021/09/04 12:29:59;;;;;;;6.40;2.55;;;29.60;87.70;;;;;;1896555;75;21153;-74
2021/09/04 12:32:25;;;;;;;2.70;2.10;;;29.40;85.70;;;;;;1896789;75;21110;-75
2021/09/04 12:34:51;;;;;;;3.37;2.50;;;29.80;85.90;;;;;;1892860;75;21453;-75
2021/09/04 12:37:17;;;;;;;2.83;2.37;;;28.80;86.60;;;;;;1893696;75;21550;-74
2021/09/04 12:39:43;;;;;;;2.12;2.02;;;28.80;87.40;;;;;;1894439;74;21503;-75